Terminal Aerodrome Forecast
Issued by NWS Sterling, VA

Current Version | Previous Version | Graphics & Text | Print | Product List | Glossary On
Versions: 1 2 3 4 5 6 7 8 9 10 11 12 13 14 15 16 17 18 19 20 21 22 23 24 25
000
FTUS41 KLWX 191439 AAA
TAFIAD
TAF AMD
KIAD 191439Z 1915/2018 30022G41KT P6SM FEW040 SCT200
     FM191600 30021G38KT P6SM BKN050 BKN200
     FM191800 30019G31KT P6SM BKN050 BKN200
     FM192200 30015G24KT P6SM BKN060 BKN140
     FM192300 29013G20KT P6SM FEW060 SCT200
     FM200200 28009KT P6SM BKN050 BKN200
     FM200400 28008KT P6SM FEW050 SCT200=

USA.gov is the U.S. government's official web portal to all federal, state and local government web resources and services.